<?xml version='1.0' encoding='UTF-8'?>
<gpx version="1.1" creator="https://www.komoot.de" xmlns="http://www.topografix.com/GPX/1/1" xmlns:xsi="http://www.w3.org/2001/XMLSchema-instance" xsi:schemaLocation="http://www.topografix.com/GPX/1/1 http://www.topografix.com/GPX/1/1/gpx.xsd">
  <metadata>
    <name>Giro Laghi Itinerario 4</name>
    <author>
      <link href="https://www.komoot.de">
        <text>komoot</text>
        <type>text/html</type>
      </link>
    </author>
  </metadata>
  <trk>
    <name>Giro Laghi Itinerario 4</name>
    <trkseg>
      <trkpt lat="44.699879" lon="7.117717">
        <ele>1715.911517</ele>
        <time>2023-07-18T13:41:53.202Z</time>
      </trkpt>
      <trkpt lat="44.699942" lon="7.117038">
        <ele>1715.911517</ele>
        <time>2023-07-18T13:42:45.766Z</time>
      </trkpt>
      <trkpt lat="44.700063" lon="7.116745">
        <ele>1715.911517</ele>
        <time>2023-07-18T13:43:12.273Z</time>
      </trkpt>
      <trkpt lat="44.700174" lon="7.116573">
        <ele>1715.911517</ele>
        <time>2023-07-18T13:43:30.976Z</time>
      </trkpt>
      <trkpt lat="44.700253" lon="7.116174">
        <ele>1718.734560</ele>
        <time>2023-07-18T13:44:05.074Z</time>
      </trkpt>
      <trkpt lat="44.700334" lon="7.115948">
        <ele>1720.499238</ele>
        <time>2023-07-18T13:44:26.589Z</time>
      </trkpt>
      <trkpt lat="44.700303" lon="7.115734">
        <ele>1722.021940</ele>
        <time>2023-07-18T13:44:46.006Z</time>
      </trkpt>
      <trkpt lat="44.700191" lon="7.115340">
        <ele>1724.980490</ele>
        <time>2023-07-18T13:45:25.141Z</time>
      </trkpt>
      <trkpt lat="44.700204" lon="7.114913">
        <ele>1727.960319</ele>
        <time>2023-07-18T13:46:06.368Z</time>
      </trkpt>
      <trkpt lat="44.700093" lon="7.114876">
        <ele>1729.079249</ele>
        <time>2023-07-18T13:46:22.809Z</time>
      </trkpt>
      <trkpt lat="44.700021" lon="7.114856">
        <ele>1729.799124</ele>
        <time>2023-07-18T13:46:33.615Z</time>
      </trkpt>
      <trkpt lat="44.699969" lon="7.114843">
        <ele>1730.317176</ele>
        <time>2023-07-18T13:46:41.400Z</time>
      </trkpt>
      <trkpt lat="44.699652" lon="7.114543">
        <ele>1734.536919</ele>
        <time>2023-07-18T13:47:42.813Z</time>
      </trkpt>
      <trkpt lat="44.699526" lon="7.114375">
        <ele>1737.815231</ele>
        <time>2023-07-18T13:48:13.165Z</time>
      </trkpt>
      <trkpt lat="44.698356" lon="7.111950">
        <ele>1776.902600</ele>
        <time>2023-07-18T13:55:02.201Z</time>
      </trkpt>
      <trkpt lat="44.698176" lon="7.110938">
        <ele>1790.535840</ele>
        <time>2023-07-18T13:57:12.305Z</time>
      </trkpt>
      <trkpt lat="44.697753" lon="7.110470">
        <ele>1800.429725</ele>
        <time>2023-07-18T13:58:50.352Z</time>
      </trkpt>
      <trkpt lat="44.697774" lon="7.110158">
        <ele>1805.359785</ele>
        <time>2023-07-18T13:59:33.435Z</time>
      </trkpt>
      <trkpt lat="44.697933" lon="7.109808">
        <ele>1811.938925</ele>
        <time>2023-07-18T14:00:30.936Z</time>
      </trkpt>
      <trkpt lat="44.697864" lon="7.109506">
        <ele>1816.963364</ele>
        <time>2023-07-18T14:01:17.029Z</time>
      </trkpt>
      <trkpt lat="44.697870" lon="7.109386">
        <ele>1818.868756</ele>
        <time>2023-07-18T14:01:34.436Z</time>
      </trkpt>
      <trkpt lat="44.697611" lon="7.108421">
        <ele>1835.206808</ele>
        <time>2023-07-18T14:04:52.852Z</time>
      </trkpt>
      <trkpt lat="44.697158" lon="7.107856">
        <ele>1849.465738</ele>
        <time>2023-07-18T14:07:48.898Z</time>
      </trkpt>
      <trkpt lat="44.697175" lon="7.107305">
        <ele>1859.038148</ele>
        <time>2023-07-18T14:09:48.738Z</time>
      </trkpt>
      <trkpt lat="44.696649" lon="7.106836">
        <ele>1874.243894</ele>
        <time>2023-07-18T14:12:46.344Z</time>
      </trkpt>
      <trkpt lat="44.696607" lon="7.107104">
        <ele>1879.007171</ele>
        <time>2023-07-18T14:13:37.501Z</time>
      </trkpt>
      <trkpt lat="44.696556" lon="7.107088">
        <ele>1880.283029</ele>
        <time>2023-07-18T14:13:51.265Z</time>
      </trkpt>
      <trkpt lat="44.696522" lon="7.107076">
        <ele>1881.138936</ele>
        <time>2023-07-18T14:13:58.610Z</time>
      </trkpt>
      <trkpt lat="44.696457" lon="7.106961">
        <ele>1883.689031</ele>
        <time>2023-07-18T14:14:19.257Z</time>
      </trkpt>
      <trkpt lat="44.696369" lon="7.106896">
        <ele>1885.739404</ele>
        <time>2023-07-18T14:14:38.768Z</time>
      </trkpt>
      <trkpt lat="44.696100" lon="7.106742">
        <ele>1891.085955</ele>
        <time>2023-07-18T14:15:33.647Z</time>
      </trkpt>
      <trkpt lat="44.695775" lon="7.106656">
        <ele>1897.174009</ele>
        <time>2023-07-18T14:16:33.995Z</time>
      </trkpt>
      <trkpt lat="44.694992" lon="7.106160">
        <ele>1912.982768</ele>
        <time>2023-07-18T14:19:08.958Z</time>
      </trkpt>
      <trkpt lat="44.694887" lon="7.106157">
        <ele>1914.916176</ele>
        <time>2023-07-18T14:19:28.243Z</time>
      </trkpt>
      <trkpt lat="44.694635" lon="7.106244">
        <ele>1919.879472</ele>
        <time>2023-07-18T14:20:14.688Z</time>
      </trkpt>
      <trkpt lat="44.694324" lon="7.106255">
        <ele>1926.141775</ele>
        <time>2023-07-18T14:21:10.282Z</time>
      </trkpt>
      <trkpt lat="44.694168" lon="7.106343">
        <ele>1929.525074</ele>
        <time>2023-07-18T14:21:40.625Z</time>
      </trkpt>
      <trkpt lat="44.693642" lon="7.106760">
        <ele>1941.678946</ele>
        <time>2023-07-18T14:23:36.304Z</time>
      </trkpt>
      <trkpt lat="44.693443" lon="7.106862">
        <ele>1945.942380</ele>
        <time>2023-07-18T14:24:20.369Z</time>
      </trkpt>
      <trkpt lat="44.693107" lon="7.107092">
        <ele>1953.464228</ele>
        <time>2023-07-18T14:25:41.888Z</time>
      </trkpt>
      <trkpt lat="44.692837" lon="7.107352">
        <ele>1961.157990</ele>
        <time>2023-07-18T14:26:54.885Z</time>
      </trkpt>
      <trkpt lat="44.692485" lon="7.107938">
        <ele>1974.114038</ele>
        <time>2023-07-18T14:28:57.504Z</time>
      </trkpt>
      <trkpt lat="44.691910" lon="7.108123">
        <ele>1988.126372</ele>
        <time>2023-07-18T14:31:35.973Z</time>
      </trkpt>
      <trkpt lat="44.691107" lon="7.107928">
        <ele>2009.757651</ele>
        <time>2023-07-18T14:35:16.948Z</time>
      </trkpt>
      <trkpt lat="44.690860" lon="7.107422">
        <ele>2022.295031</ele>
        <time>2023-07-18T14:37:27.894Z</time>
      </trkpt>
      <trkpt lat="44.690784" lon="7.107032">
        <ele>2030.554976</ele>
        <time>2023-07-18T14:38:59.354Z</time>
      </trkpt>
      <trkpt lat="44.690644" lon="7.106592">
        <ele>2040.401472</ele>
        <time>2023-07-18T14:40:53.080Z</time>
      </trkpt>
      <trkpt lat="44.690191" lon="7.106010">
        <ele>2059.414860</ele>
        <time>2023-07-18T14:44:26.221Z</time>
      </trkpt>
      <trkpt lat="44.689770" lon="7.105753">
        <ele>2074.481468</ele>
        <time>2023-07-18T14:47:10.066Z</time>
      </trkpt>
      <trkpt lat="44.689592" lon="7.105863">
        <ele>2080.864190</ele>
        <time>2023-07-18T14:48:20.179Z</time>
      </trkpt>
      <trkpt lat="44.689371" lon="7.105801">
        <ele>2088.262380</ele>
        <time>2023-07-18T14:49:39.757Z</time>
      </trkpt>
      <trkpt lat="44.689033" lon="7.105494">
        <ele>2101.471046</ele>
        <time>2023-07-18T14:51:55.306Z</time>
      </trkpt>
      <trkpt lat="44.688814" lon="7.105391">
        <ele>2108.439828</ele>
        <time>2023-07-18T14:53:06.113Z</time>
      </trkpt>
      <trkpt lat="44.688501" lon="7.104889">
        <ele>2118.389041</ele>
        <time>2023-07-18T14:55:20.632Z</time>
      </trkpt>
      <trkpt lat="44.688533" lon="7.104715">
        <ele>2121.067081</ele>
        <time>2023-07-18T14:55:53.215Z</time>
      </trkpt>
      <trkpt lat="44.688530" lon="7.104525">
        <ele>2123.898884</ele>
        <time>2023-07-18T14:56:27.064Z</time>
      </trkpt>
      <trkpt lat="44.688617" lon="7.104120">
        <ele>2130.203067</ele>
        <time>2023-07-18T14:57:37.988Z</time>
      </trkpt>
      <trkpt lat="44.688894" lon="7.103777">
        <ele>2137.937812</ele>
        <time>2023-07-18T14:59:00.969Z</time>
      </trkpt>
      <trkpt lat="44.688810" lon="7.103685">
        <ele>2140.169123</ele>
        <time>2023-07-18T14:59:24.108Z</time>
      </trkpt>
      <trkpt lat="44.688828" lon="7.103516">
        <ele>2142.715407</ele>
        <time>2023-07-18T14:59:49.699Z</time>
      </trkpt>
      <trkpt lat="44.688701" lon="7.103219">
        <ele>2147.592946</ele>
        <time>2023-07-18T15:00:42.224Z</time>
      </trkpt>
      <trkpt lat="44.688625" lon="7.103065">
        <ele>2150.102578</ele>
        <time>2023-07-18T15:01:09.991Z</time>
      </trkpt>
      <trkpt lat="44.688501" lon="7.102947">
        <ele>2152.921675</ele>
        <time>2023-07-18T15:01:41.455Z</time>
      </trkpt>
      <trkpt lat="44.688417" lon="7.102814">
        <ele>2155.303272</ele>
        <time>2023-07-18T15:02:08.150Z</time>
      </trkpt>
      <trkpt lat="44.688362" lon="7.102670">
        <ele>2157.491604</ele>
        <time>2023-07-18T15:02:33.082Z</time>
      </trkpt>
      <trkpt lat="44.688246" lon="7.102578">
        <ele>2159.999198</ele>
        <time>2023-07-18T15:03:03.000Z</time>
      </trkpt>
      <trkpt lat="44.688165" lon="7.102445">
        <ele>2162.343664</ele>
        <time>2023-07-18T15:03:31.415Z</time>
      </trkpt>
      <trkpt lat="44.687878" lon="7.102311">
        <ele>2168.037865</ele>
        <time>2023-07-18T15:04:44.422Z</time>
      </trkpt>
      <trkpt lat="44.687692" lon="7.102030">
        <ele>2173.177725</ele>
        <time>2023-07-18T15:05:54.530Z</time>
      </trkpt>
      <trkpt lat="44.687630" lon="7.101830">
        <ele>2176.098645</ele>
        <time>2023-07-18T15:06:35.268Z</time>
      </trkpt>
      <trkpt lat="44.687488" lon="7.101763">
        <ele>2178.918955</ele>
        <time>2023-07-18T15:07:14.961Z</time>
      </trkpt>
      <trkpt lat="44.687277" lon="7.101738">
        <ele>2183.321184</ele>
        <time>2023-07-18T15:08:11.355Z</time>
      </trkpt>
      <trkpt lat="44.687196" lon="7.101763">
        <ele>2185.045504</ele>
        <time>2023-07-18T15:08:32.913Z</time>
      </trkpt>
      <trkpt lat="44.687142" lon="7.101610">
        <ele>2187.570683</ele>
        <time>2023-07-18T15:09:05.111Z</time>
      </trkpt>
      <trkpt lat="44.687029" lon="7.101476">
        <ele>2190.643932</ele>
        <time>2023-07-18T15:09:43.366Z</time>
      </trkpt>
      <trkpt lat="44.686868" lon="7.101343">
        <ele>2194.526313</ele>
        <time>2023-07-18T15:10:30.748Z</time>
      </trkpt>
      <trkpt lat="44.686646" lon="7.101076">
        <ele>2200.599855</ele>
        <time>2023-07-18T15:11:44.147Z</time>
      </trkpt>
      <trkpt lat="44.686424" lon="7.100954">
        <ele>2205.555768</ele>
        <time>2023-07-18T15:12:44.198Z</time>
      </trkpt>
      <trkpt lat="44.686391" lon="7.100882">
        <ele>2206.822169</ele>
        <time>2023-07-18T15:12:59.275Z</time>
      </trkpt>
      <trkpt lat="44.686220" lon="7.100882">
        <ele>2210.377804</ele>
        <time>2023-07-18T15:13:41.573Z</time>
      </trkpt>
      <trkpt lat="44.686045" lon="7.100836">
        <ele>2214.079610</ele>
        <time>2023-07-18T15:14:24.642Z</time>
      </trkpt>
      <trkpt lat="44.685928" lon="7.100748">
        <ele>2216.700973</ele>
        <time>2023-07-18T15:14:55.964Z</time>
      </trkpt>
      <trkpt lat="44.685764" lon="7.100538">
        <ele>2220.078244</ele>
        <time>2023-07-18T15:15:48.439Z</time>
      </trkpt>
      <trkpt lat="44.685488" lon="7.100369">
        <ele>2224.662121</ele>
        <time>2023-07-18T15:16:58.581Z</time>
      </trkpt>
      <trkpt lat="44.685400" lon="7.100272">
        <ele>2226.364651</ele>
        <time>2023-07-18T15:17:24.174Z</time>
      </trkpt>
      <trkpt lat="44.685233" lon="7.100159">
        <ele>2229.186672</ele>
        <time>2023-07-18T15:18:04.696Z</time>
      </trkpt>
      <trkpt lat="44.685058" lon="7.100041">
        <ele>2232.141945</ele>
        <time>2023-07-18T15:18:44.869Z</time>
      </trkpt>
      <trkpt lat="44.684857" lon="7.099833">
        <ele>2235.941911</ele>
        <time>2023-07-18T15:19:34.130Z</time>
      </trkpt>
      <trkpt lat="44.684720" lon="7.099743">
        <ele>2238.244462</ele>
        <time>2023-07-18T15:20:00.594Z</time>
      </trkpt>
      <trkpt lat="44.684686" lon="7.099657">
        <ele>2239.309831</ele>
        <time>2023-07-18T15:20:12.747Z</time>
      </trkpt>
      <trkpt lat="44.684667" lon="7.099556">
        <ele>2240.440965</ele>
        <time>2023-07-18T15:20:26.282Z</time>
      </trkpt>
      <trkpt lat="44.684679" lon="7.099446">
        <ele>2241.645848</ele>
        <time>2023-07-18T15:20:39.551Z</time>
      </trkpt>
      <trkpt lat="44.684749" lon="7.099347">
        <ele>2243.157504</ele>
        <time>2023-07-18T15:20:56.543Z</time>
      </trkpt>
      <trkpt lat="44.684788" lon="7.099170">
        <ele>2244.426250</ele>
        <time>2023-07-18T15:21:18.956Z</time>
      </trkpt>
      <trkpt lat="44.684911" lon="7.098971">
        <ele>2245.828501</ele>
        <time>2023-07-18T15:21:50.191Z</time>
      </trkpt>
      <trkpt lat="44.684787" lon="7.098762">
        <ele>2247.276087</ele>
        <time>2023-07-18T15:22:22.334Z</time>
      </trkpt>
      <trkpt lat="44.684706" lon="7.098767">
        <ele>2247.882519</ele>
        <time>2023-07-18T15:22:35.224Z</time>
      </trkpt>
      <trkpt lat="44.684668" lon="7.098696">
        <ele>2248.355113</ele>
        <time>2023-07-18T15:22:44.991Z</time>
      </trkpt>
      <trkpt lat="44.684621" lon="7.098728">
        <ele>2248.745678</ele>
        <time>2023-07-18T15:22:53.302Z</time>
      </trkpt>
      <trkpt lat="44.684458" lon="7.098619">
        <ele>2250.095638</ele>
        <time>2023-07-18T15:23:21.200Z</time>
      </trkpt>
      <trkpt lat="44.684422" lon="7.098607">
        <ele>2250.372363</ele>
        <time>2023-07-18T15:23:26.909Z</time>
      </trkpt>
      <trkpt lat="44.684458" lon="7.098619">
        <ele>2250.649088</ele>
        <time>2023-07-18T15:23:32.163Z</time>
      </trkpt>
      <trkpt lat="44.684621" lon="7.098728">
        <ele>2251.999049</ele>
        <time>2023-07-18T15:23:58.960Z</time>
      </trkpt>
      <trkpt lat="44.684668" lon="7.098696">
        <ele>2252.389613</ele>
        <time>2023-07-18T15:24:06.793Z</time>
      </trkpt>
      <trkpt lat="44.684706" lon="7.098767">
        <ele>2252.862207</ele>
        <time>2023-07-18T15:24:16.344Z</time>
      </trkpt>
      <trkpt lat="44.684787" lon="7.098762">
        <ele>2253.468639</ele>
        <time>2023-07-18T15:24:28.069Z</time>
      </trkpt>
      <trkpt lat="44.684866" lon="7.098698">
        <ele>2254.150538</ele>
        <time>2023-07-18T15:24:41.578Z</time>
      </trkpt>
      <trkpt lat="44.684995" lon="7.098672">
        <ele>2255.125265</ele>
        <time>2023-07-18T15:25:01.103Z</time>
      </trkpt>
      <trkpt lat="44.685054" lon="7.098612">
        <ele>2255.669830</ele>
        <time>2023-07-18T15:25:12.071Z</time>
      </trkpt>
      <trkpt lat="44.685148" lon="7.098593">
        <ele>2256.380137</ele>
        <time>2023-07-18T15:25:25.617Z</time>
      </trkpt>
      <trkpt lat="44.685302" lon="7.098577">
        <ele>2257.644151</ele>
        <time>2023-07-18T15:25:48.490Z</time>
      </trkpt>
      <trkpt lat="44.685465" lon="7.098625">
        <ele>2259.259094</ele>
        <time>2023-07-18T15:26:13.290Z</time>
      </trkpt>
      <trkpt lat="44.685490" lon="7.098606">
        <ele>2259.534657</ele>
        <time>2023-07-18T15:26:17.339Z</time>
      </trkpt>
      <trkpt lat="44.685552" lon="7.098656">
        <ele>2260.227712</ele>
        <time>2023-07-18T15:26:28.177Z</time>
      </trkpt>
      <trkpt lat="44.685640" lon="7.098631">
        <ele>2261.098313</ele>
        <time>2023-07-18T15:26:42.263Z</time>
      </trkpt>
      <trkpt lat="44.685636" lon="7.098516">
        <ele>2261.892139</ele>
        <time>2023-07-18T15:26:55.504Z</time>
      </trkpt>
      <trkpt lat="44.685687" lon="7.098488">
        <ele>2262.423047</ele>
        <time>2023-07-18T15:27:04.436Z</time>
      </trkpt>
      <trkpt lat="44.685882" lon="7.098725">
        <ele>2264.922214</ele>
        <time>2023-07-18T15:27:45.861Z</time>
      </trkpt>
      <trkpt lat="44.685946" lon="7.098756">
        <ele>2265.578616</ele>
        <time>2023-07-18T15:27:57.497Z</time>
      </trkpt>
      <trkpt lat="44.685995" lon="7.098731">
        <ele>2266.084083</ele>
        <time>2023-07-18T15:28:06.481Z</time>
      </trkpt>
      <trkpt lat="44.686068" lon="7.098778">
        <ele>2266.862631</ele>
        <time>2023-07-18T15:28:21.197Z</time>
      </trkpt>
      <trkpt lat="44.686177" lon="7.098915">
        <ele>2268.280183</ele>
        <time>2023-07-18T15:28:48.628Z</time>
      </trkpt>
      <trkpt lat="44.686332" lon="7.098759">
        <ele>2270.128448</ele>
        <time>2023-07-18T15:29:20.712Z</time>
      </trkpt>
      <trkpt lat="44.686412" lon="7.098737">
        <ele>2270.918926</ele>
        <time>2023-07-18T15:29:35.505Z</time>
      </trkpt>
      <trkpt lat="44.686430" lon="7.098687">
        <ele>2271.305325</ele>
        <time>2023-07-18T15:29:42.967Z</time>
      </trkpt>
      <trkpt lat="44.686416" lon="7.098618">
        <ele>2271.800038</ele>
        <time>2023-07-18T15:29:52.108Z</time>
      </trkpt>
      <trkpt lat="44.686507" lon="7.098494">
        <ele>2273.028704</ele>
        <time>2023-07-18T15:30:13.073Z</time>
      </trkpt>
      <trkpt lat="44.686541" lon="7.098480">
        <ele>2273.372253</ele>
        <time>2023-07-18T15:30:18.881Z</time>
      </trkpt>
      <trkpt lat="44.686625" lon="7.098526">
        <ele>2274.246393</ele>
        <time>2023-07-18T15:30:35.453Z</time>
      </trkpt>
      <trkpt lat="44.686663" lon="7.098516">
        <ele>2274.627799</ele>
        <time>2023-07-18T15:30:43.340Z</time>
      </trkpt>
      <trkpt lat="44.686810" lon="7.098181">
        <ele>2278.851287</ele>
        <time>2023-07-18T15:31:33.172Z</time>
      </trkpt>
      <trkpt lat="44.686836" lon="7.097982">
        <ele>2281.022010</ele>
        <time>2023-07-18T15:32:03.165Z</time>
      </trkpt>
      <trkpt lat="44.686879" lon="7.097915">
        <ele>2281.990373</ele>
        <time>2023-07-18T15:32:15.433Z</time>
      </trkpt>
      <trkpt lat="44.686953" lon="7.097477">
        <ele>2286.820308</ele>
        <time>2023-07-18T15:33:21.875Z</time>
      </trkpt>
      <trkpt lat="44.686794" lon="7.097349">
        <ele>2289.584833</ele>
        <time>2023-07-18T15:33:58.045Z</time>
      </trkpt>
      <trkpt lat="44.686794" lon="7.097219">
        <ele>2290.979539</ele>
        <time>2023-07-18T15:34:19.936Z</time>
      </trkpt>
      <trkpt lat="44.686731" lon="7.097147">
        <ele>2292.204477</ele>
        <time>2023-07-18T15:34:38.847Z</time>
      </trkpt>
      <trkpt lat="44.686760" lon="7.097087">
        <ele>2292.982853</ele>
        <time>2023-07-18T15:34:49.275Z</time>
      </trkpt>
      <trkpt lat="44.686677" lon="7.097083">
        <ele>2294.236070</ele>
        <time>2023-07-18T15:35:06.315Z</time>
      </trkpt>
      <trkpt lat="44.686631" lon="7.097010">
        <ele>2295.282595</ele>
        <time>2023-07-18T15:35:21.451Z</time>
      </trkpt>
      <trkpt lat="44.686541" lon="7.096652">
        <ele>2299.356458</ele>
        <time>2023-07-18T15:36:22.409Z</time>
      </trkpt>
      <trkpt lat="44.686530" lon="7.096583">
        <ele>2300.115110</ele>
        <time>2023-07-18T15:36:32.937Z</time>
      </trkpt>
      <trkpt lat="44.686572" lon="7.096117">
        <ele>2305.428851</ele>
        <time>2023-07-18T15:37:46.068Z</time>
      </trkpt>
      <trkpt lat="44.686711" lon="7.096091">
        <ele>2307.715344</ele>
        <time>2023-07-18T15:38:17.797Z</time>
      </trkpt>
      <trkpt lat="44.686636" lon="7.095998">
        <ele>2309.345687</ele>
        <time>2023-07-18T15:38:38.078Z</time>
      </trkpt>
      <trkpt lat="44.686615" lon="7.095903">
        <ele>2310.499028</ele>
        <time>2023-07-18T15:38:51.606Z</time>
      </trkpt>
      <trkpt lat="44.686625" lon="7.095860">
        <ele>2311.023518</ele>
        <time>2023-07-18T15:38:57.956Z</time>
      </trkpt>
      <trkpt lat="44.686796" lon="7.096004">
        <ele>2314.273389</ele>
        <time>2023-07-18T15:39:40.154Z</time>
      </trkpt>
      <trkpt lat="44.686793" lon="7.095769">
        <ele>2316.998176</ele>
        <time>2023-07-18T15:40:15.237Z</time>
      </trkpt>
      <trkpt lat="44.686908" lon="7.095532">
        <ele>2320.324627</ele>
        <time>2023-07-18T15:41:00.632Z</time>
      </trkpt>
      <trkpt lat="44.687036" lon="7.095338">
        <ele>2323.392920</ele>
        <time>2023-07-18T15:41:42.458Z</time>
      </trkpt>
      <trkpt lat="44.687086" lon="7.095159">
        <ele>2325.622469</ele>
        <time>2023-07-18T15:42:13.233Z</time>
      </trkpt>
      <trkpt lat="44.687056" lon="7.095055">
        <ele>2326.923592</ele>
        <time>2023-07-18T15:42:29.330Z</time>
      </trkpt>
      <trkpt lat="44.687237" lon="7.095071">
        <ele>2329.880808</ele>
        <time>2023-07-18T15:43:09.748Z</time>
      </trkpt>
      <trkpt lat="44.687382" lon="7.094609">
        <ele>2334.833878</ele>
        <time>2023-07-18T15:44:26.184Z</time>
      </trkpt>
      <trkpt lat="44.687339" lon="7.094196">
        <ele>2338.735737</ele>
        <time>2023-07-18T15:45:26.570Z</time>
      </trkpt>
      <trkpt lat="44.686996" lon="7.093706">
        <ele>2345.163795</ele>
        <time>2023-07-18T15:47:01.568Z</time>
      </trkpt>
      <trkpt lat="44.686997" lon="7.093456">
        <ele>2347.500820</ele>
        <time>2023-07-18T15:47:32.738Z</time>
      </trkpt>
      <trkpt lat="44.687405" lon="7.092791">
        <ele>2355.366675</ele>
        <time>2023-07-18T15:49:18.629Z</time>
      </trkpt>
      <trkpt lat="44.687469" lon="7.092447">
        <ele>2357.522834</ele>
        <time>2023-07-18T15:50:00.139Z</time>
      </trkpt>
      <trkpt lat="44.687469" lon="7.091761">
        <ele>2361.682544</ele>
        <time>2023-07-18T15:51:19.723Z</time>
      </trkpt>
      <trkpt lat="44.687661" lon="7.091031">
        <ele>2366.402245</ele>
        <time>2023-07-18T15:52:48.458Z</time>
      </trkpt>
      <trkpt lat="44.688156" lon="7.090967">
        <ele>2370.118567</ele>
        <time>2023-07-18T15:54:06.382Z</time>
      </trkpt>
      <trkpt lat="44.688223" lon="7.090926">
        <ele>2370.171556</ele>
        <time>2023-07-18T15:54:17.768Z</time>
      </trkpt>
      <trkpt lat="44.688327" lon="7.090738">
        <ele>2370.294372</ele>
        <time>2023-07-18T15:54:43.208Z</time>
      </trkpt>
      <trkpt lat="44.688488" lon="7.090586">
        <ele>2370.434993</ele>
        <time>2023-07-18T15:55:12.630Z</time>
      </trkpt>
      <trkpt lat="44.688593" lon="7.090416">
        <ele>2370.551100</ele>
        <time>2023-07-18T15:55:35.737Z</time>
      </trkpt>
      <trkpt lat="44.688704" lon="7.090157">
        <ele>2370.707022</ele>
        <time>2023-07-18T15:56:06.205Z</time>
      </trkpt>
      <trkpt lat="44.688767" lon="7.090133">
        <ele>2370.754357</ele>
        <time>2023-07-18T15:56:14.925Z</time>
      </trkpt>
      <trkpt lat="44.688925" lon="7.090142">
        <ele>2370.869034</ele>
        <time>2023-07-18T15:56:35.230Z</time>
      </trkpt>
      <trkpt lat="44.688977" lon="7.090063">
        <ele>2370.924542</ele>
        <time>2023-07-18T15:56:44.957Z</time>
      </trkpt>
      <trkpt lat="44.689104" lon="7.090061">
        <ele>2371.016649</ele>
        <time>2023-07-18T15:57:01.131Z</time>
      </trkpt>
      <trkpt lat="44.689106" lon="7.089958">
        <ele>2371.069774</ele>
        <time>2023-07-18T15:57:10.922Z</time>
      </trkpt>
      <trkpt lat="44.689166" lon="7.089905">
        <ele>2371.121155</ele>
        <time>2023-07-18T15:57:20.292Z</time>
      </trkpt>
      <trkpt lat="44.689271" lon="7.089888">
        <ele>2371.197805</ele>
        <time>2023-07-18T15:57:34.604Z</time>
      </trkpt>
      <trkpt lat="44.689467" lon="7.089748">
        <ele>2371.357223</ele>
        <time>2023-07-18T15:58:05.708Z</time>
      </trkpt>
      <trkpt lat="44.689487" lon="7.089701">
        <ele>2371.170073</ele>
        <time>2023-07-18T15:58:11.231Z</time>
      </trkpt>
      <trkpt lat="44.689583" lon="7.089511">
        <ele>2368.965207</ele>
        <time>2023-07-18T15:58:35.455Z</time>
      </trkpt>
      <trkpt lat="44.689775" lon="7.089439">
        <ele>2366.321399</ele>
        <time>2023-07-18T15:59:05.756Z</time>
      </trkpt>
      <trkpt lat="44.689746" lon="7.089329">
        <ele>2365.211675</ele>
        <time>2023-07-18T15:59:18.464Z</time>
      </trkpt>
      <trkpt lat="44.689821" lon="7.089282">
        <ele>2364.119239</ele>
        <time>2023-07-18T15:59:31.339Z</time>
      </trkpt>
      <trkpt lat="44.689813" lon="7.089235">
        <ele>2363.662104</ele>
        <time>2023-07-18T15:59:36.863Z</time>
      </trkpt>
      <trkpt lat="44.689908" lon="7.089251">
        <ele>2362.389089</ele>
        <time>2023-07-18T15:59:52.469Z</time>
      </trkpt>
      <trkpt lat="44.690144" lon="7.089208">
        <ele>2359.222846</ele>
        <time>2023-07-18T16:00:30.944Z</time>
      </trkpt>
      <trkpt lat="44.690432" lon="7.088996">
        <ele>2354.897985</ele>
        <time>2023-07-18T16:01:24.366Z</time>
      </trkpt>
      <trkpt lat="44.690523" lon="7.088892">
        <ele>2353.337966</ele>
        <time>2023-07-18T16:01:44.205Z</time>
      </trkpt>
      <trkpt lat="44.690784" lon="7.088780">
        <ele>2349.707330</ele>
        <time>2023-07-18T16:02:28.570Z</time>
      </trkpt>
      <trkpt lat="44.690838" lon="7.088757">
        <ele>2348.956639</ele>
        <time>2023-07-18T16:02:38.203Z</time>
      </trkpt>
      <trkpt lat="44.691546" lon="7.088606">
        <ele>2341.703030</ele>
        <time>2023-07-18T16:04:33.008Z</time>
      </trkpt>
      <trkpt lat="44.691846" lon="7.088378">
        <ele>2338.453528</ele>
        <time>2023-07-18T16:05:24.691Z</time>
      </trkpt>
      <trkpt lat="44.691954" lon="7.088177">
        <ele>2336.746626</ele>
        <time>2023-07-18T16:05:50.460Z</time>
      </trkpt>
      <trkpt lat="44.692490" lon="7.088006">
        <ele>2331.508980</ele>
        <time>2023-07-18T16:07:06.642Z</time>
      </trkpt>
      <trkpt lat="44.692811" lon="7.087997">
        <ele>2329.578756</ele>
        <time>2023-07-18T16:07:49.382Z</time>
      </trkpt>
      <trkpt lat="44.693156" lon="7.088096">
        <ele>2328.268184</ele>
        <time>2023-07-18T16:08:35.500Z</time>
      </trkpt>
      <trkpt lat="44.693494" lon="7.088126">
        <ele>2327.007611</ele>
        <time>2023-07-18T16:09:20.685Z</time>
      </trkpt>
      <trkpt lat="44.693784" lon="7.088236">
        <ele>2325.889649</ele>
        <time>2023-07-18T16:10:01.964Z</time>
      </trkpt>
      <trkpt lat="44.693992" lon="7.088362">
        <ele>2325.046719</ele>
        <time>2023-07-18T16:10:33.831Z</time>
      </trkpt>
      <trkpt lat="44.694700" lon="7.089100">
        <ele>2323.359627</ele>
        <time>2023-07-18T16:12:40.302Z</time>
      </trkpt>
      <trkpt lat="44.695209" lon="7.089439">
        <ele>2323.076985</ele>
        <time>2023-07-18T16:13:57.769Z</time>
      </trkpt>
      <trkpt lat="44.694700" lon="7.089100">
        <ele>2322.794343</ele>
        <time>2023-07-18T16:15:16.237Z</time>
      </trkpt>
      <trkpt lat="44.693992" lon="7.088362">
        <ele>2324.731245</ele>
        <time>2023-07-18T16:17:27.989Z</time>
      </trkpt>
      <trkpt lat="44.693784" lon="7.088236">
        <ele>2325.383479</ele>
        <time>2023-07-18T16:18:02.339Z</time>
      </trkpt>
      <trkpt lat="44.693494" lon="7.088126">
        <ele>2326.248524</ele>
        <time>2023-07-18T16:18:46.202Z</time>
      </trkpt>
      <trkpt lat="44.693156" lon="7.088096">
        <ele>2327.223917</ele>
        <time>2023-07-18T16:19:33.245Z</time>
      </trkpt>
      <trkpt lat="44.692811" lon="7.087997">
        <ele>2326.796454</ele>
        <time>2023-07-18T16:20:19.406Z</time>
      </trkpt>
      <trkpt lat="44.692490" lon="7.088006">
        <ele>2323.941318</ele>
        <time>2023-07-18T16:21:00.190Z</time>
      </trkpt>
      <trkpt lat="44.691954" lon="7.088177">
        <ele>2319.053761</ele>
        <time>2023-07-18T16:22:15.382Z</time>
      </trkpt>
      <trkpt lat="44.691846" lon="7.088378">
        <ele>2317.460949</ele>
        <time>2023-07-18T16:22:41.962Z</time>
      </trkpt>
      <trkpt lat="44.691963" lon="7.088764">
        <ele>2314.808166</ele>
        <time>2023-07-18T16:23:28.900Z</time>
      </trkpt>
      <trkpt lat="44.691952" lon="7.088868">
        <ele>2314.143458</ele>
        <time>2023-07-18T16:23:41.226Z</time>
      </trkpt>
      <trkpt lat="44.692052" lon="7.089098">
        <ele>2312.439057</ele>
        <time>2023-07-18T16:24:15.298Z</time>
      </trkpt>
      <trkpt lat="44.692078" lon="7.089610">
        <ele>2302.177066</ele>
        <time>2023-07-18T16:25:28.861Z</time>
      </trkpt>
      <trkpt lat="44.692137" lon="7.089720">
        <ele>2299.039002</ele>
        <time>2023-07-18T16:25:50.644Z</time>
      </trkpt>
      <trkpt lat="44.692286" lon="7.089850">
        <ele>2293.422308</ele>
        <time>2023-07-18T16:26:29.630Z</time>
      </trkpt>
      <trkpt lat="44.692575" lon="7.089986">
        <ele>2283.660057</ele>
        <time>2023-07-18T16:27:41.053Z</time>
      </trkpt>
      <trkpt lat="44.692676" lon="7.090226">
        <ele>2277.308681</ele>
        <time>2023-07-18T16:28:30.082Z</time>
      </trkpt>
      <trkpt lat="44.692835" lon="7.090351">
        <ele>2271.473737</ele>
        <time>2023-07-18T16:29:15.828Z</time>
      </trkpt>
      <trkpt lat="44.692969" lon="7.090529">
        <ele>2265.569687</ele>
        <time>2023-07-18T16:30:04.325Z</time>
      </trkpt>
      <trkpt lat="44.692876" lon="7.090733">
        <ele>2260.050838</ele>
        <time>2023-07-18T16:30:50.658Z</time>
      </trkpt>
      <trkpt lat="44.692705" lon="7.090889">
        <ele>2253.358402</ele>
        <time>2023-07-18T16:31:47.918Z</time>
      </trkpt>
      <trkpt lat="44.692717" lon="7.090988">
        <ele>2250.573125</ele>
        <time>2023-07-18T16:32:08.179Z</time>
      </trkpt>
      <trkpt lat="44.692772" lon="7.091124">
        <ele>2246.233708</ele>
        <time>2023-07-18T16:32:39.994Z</time>
      </trkpt>
      <trkpt lat="44.692620" lon="7.091140">
        <ele>2240.287168</ele>
        <time>2023-07-18T16:33:25.303Z</time>
      </trkpt>
      <trkpt lat="44.692457" lon="7.091223">
        <ele>2233.524254</ele>
        <time>2023-07-18T16:34:15.673Z</time>
      </trkpt>
      <trkpt lat="44.692564" lon="7.091443">
        <ele>2226.131464</ele>
        <time>2023-07-18T16:35:10.955Z</time>
      </trkpt>
      <trkpt lat="44.692282" lon="7.091547">
        <ele>2214.758012</ele>
        <time>2023-07-18T16:36:32.993Z</time>
      </trkpt>
      <trkpt lat="44.692394" lon="7.091798">
        <ele>2206.539077</ele>
        <time>2023-07-18T16:37:30.173Z</time>
      </trkpt>
      <trkpt lat="44.692460" lon="7.091913">
        <ele>2202.440031</ele>
        <time>2023-07-18T16:37:57.703Z</time>
      </trkpt>
      <trkpt lat="44.692720" lon="7.092096">
        <ele>2191.097795</ele>
        <time>2023-07-18T16:39:11.148Z</time>
      </trkpt>
      <trkpt lat="44.692679" lon="7.092184">
        <ele>2188.179762</ele>
        <time>2023-07-18T16:39:29.553Z</time>
      </trkpt>
      <trkpt lat="44.692757" lon="7.092247">
        <ele>2184.670815</ele>
        <time>2023-07-18T16:39:51.322Z</time>
      </trkpt>
      <trkpt lat="44.692776" lon="7.092425">
        <ele>2181.236109</ele>
        <time>2023-07-18T16:40:21.680Z</time>
      </trkpt>
      <trkpt lat="44.692809" lon="7.092482">
        <ele>2179.915179</ele>
        <time>2023-07-18T16:40:34.071Z</time>
      </trkpt>
      <trkpt lat="44.693199" lon="7.092681">
        <ele>2169.428650</ele>
        <time>2023-07-18T16:42:10.462Z</time>
      </trkpt>
      <trkpt lat="44.693229" lon="7.092790">
        <ele>2167.328360</ele>
        <time>2023-07-18T16:42:29.335Z</time>
      </trkpt>
      <trkpt lat="44.693158" lon="7.093025">
        <ele>2162.740102</ele>
        <time>2023-07-18T16:43:09.556Z</time>
      </trkpt>
      <trkpt lat="44.693210" lon="7.093145">
        <ele>2160.214791</ele>
        <time>2023-07-18T16:43:31.249Z</time>
      </trkpt>
      <trkpt lat="44.693143" lon="7.093229">
        <ele>2157.946221</ele>
        <time>2023-07-18T16:43:50.138Z</time>
      </trkpt>
      <trkpt lat="44.693329" lon="7.093631">
        <ele>2149.327427</ele>
        <time>2023-07-18T16:44:57.145Z</time>
      </trkpt>
      <trkpt lat="44.693470" lon="7.093777">
        <ele>2144.901928</ele>
        <time>2023-07-18T16:45:28.557Z</time>
      </trkpt>
      <trkpt lat="44.693663" lon="7.093908">
        <ele>2139.485259</ele>
        <time>2023-07-18T16:46:04.202Z</time>
      </trkpt>
      <trkpt lat="44.694005" lon="7.093903">
        <ele>2135.760766</ele>
        <time>2023-07-18T16:46:58.491Z</time>
      </trkpt>
      <trkpt lat="44.694316" lon="7.093976">
        <ele>2132.820432</ele>
        <time>2023-07-18T16:47:46.725Z</time>
      </trkpt>
      <trkpt lat="44.694569" lon="7.094398">
        <ele>2129.160826</ele>
        <time>2023-07-18T16:48:44.453Z</time>
      </trkpt>
      <trkpt lat="44.694737" lon="7.094427">
        <ele>2127.582388</ele>
        <time>2023-07-18T16:49:08.702Z</time>
      </trkpt>
      <trkpt lat="44.694811" lon="7.094484">
        <ele>2126.795621</ele>
        <time>2023-07-18T16:49:20.683Z</time>
      </trkpt>
      <trkpt lat="44.694921" lon="7.094456">
        <ele>2125.753155</ele>
        <time>2023-07-18T16:49:36.412Z</time>
      </trkpt>
      <trkpt lat="44.695018" lon="7.094474">
        <ele>2124.840744</ele>
        <time>2023-07-18T16:49:49.951Z</time>
      </trkpt>
      <trkpt lat="44.695121" lon="7.094543">
        <ele>2123.776865</ele>
        <time>2023-07-18T16:50:05.793Z</time>
      </trkpt>
      <trkpt lat="44.695251" lon="7.094532">
        <ele>2122.562356</ele>
        <time>2023-07-18T16:50:23.641Z</time>
      </trkpt>
      <trkpt lat="44.695256" lon="7.094594">
        <ele>2122.148714</ele>
        <time>2023-07-18T16:50:29.601Z</time>
      </trkpt>
      <trkpt lat="44.695394" lon="7.094544">
        <ele>2121.616486</ele>
        <time>2023-07-18T16:50:48.845Z</time>
      </trkpt>
      <trkpt lat="44.695503" lon="7.094546">
        <ele>2121.375361</ele>
        <time>2023-07-18T16:51:03.406Z</time>
      </trkpt>
      <trkpt lat="44.695607" lon="7.094479">
        <ele>2121.122342</ele>
        <time>2023-07-18T16:51:18.509Z</time>
      </trkpt>
      <trkpt lat="44.695851" lon="7.094412">
        <ele>2120.572437</ele>
        <time>2023-07-18T16:51:50.890Z</time>
      </trkpt>
      <trkpt lat="44.695974" lon="7.094344">
        <ele>2120.280110</ele>
        <time>2023-07-18T16:52:08.155Z</time>
      </trkpt>
      <trkpt lat="44.696134" lon="7.094165">
        <ele>2119.827924</ele>
        <time>2023-07-18T16:52:34.891Z</time>
      </trkpt>
      <trkpt lat="44.696197" lon="7.094006">
        <ele>2119.541703</ele>
        <time>2023-07-18T16:52:51.812Z</time>
      </trkpt>
      <trkpt lat="44.696306" lon="7.093898">
        <ele>2119.246799</ele>
        <time>2023-07-18T16:53:09.074Z</time>
      </trkpt>
      <trkpt lat="44.696692" lon="7.093725">
        <ele>2118.350697</ele>
        <time>2023-07-18T16:54:00.559Z</time>
      </trkpt>
      <trkpt lat="44.696793" lon="7.093571">
        <ele>2118.021237</ele>
        <time>2023-07-18T16:54:19.612Z</time>
      </trkpt>
      <trkpt lat="44.696886" lon="7.093526">
        <ele>2117.703935</ele>
        <time>2023-07-18T16:54:31.884Z</time>
      </trkpt>
      <trkpt lat="44.697007" lon="7.093369">
        <ele>2116.896796</ele>
        <time>2023-07-18T16:54:52.853Z</time>
      </trkpt>
      <trkpt lat="44.697044" lon="7.093274">
        <ele>2116.519227</ele>
        <time>2023-07-18T16:55:02.999Z</time>
      </trkpt>
      <trkpt lat="44.697220" lon="7.093097">
        <ele>2115.458391</ele>
        <time>2023-07-18T16:55:30.470Z</time>
      </trkpt>
      <trkpt lat="44.697328" lon="7.093079">
        <ele>2114.925121</ele>
        <time>2023-07-18T16:55:44.899Z</time>
      </trkpt>
      <trkpt lat="44.697443" lon="7.093177">
        <ele>2114.265842</ele>
        <time>2023-07-18T16:56:02.690Z</time>
      </trkpt>
      <trkpt lat="44.697518" lon="7.093011">
        <ele>2113.580269</ele>
        <time>2023-07-18T16:56:21.284Z</time>
      </trkpt>
      <trkpt lat="44.697619" lon="7.092898">
        <ele>2112.947505</ele>
        <time>2023-07-18T16:56:39.222Z</time>
      </trkpt>
      <trkpt lat="44.697693" lon="7.092940">
        <ele>2112.556237</ele>
        <time>2023-07-18T16:56:49.930Z</time>
      </trkpt>
      <trkpt lat="44.697863" lon="7.093207">
        <ele>2111.306875</ele>
        <time>2023-07-18T16:57:25.026Z</time>
      </trkpt>
      <trkpt lat="44.697988" lon="7.093305">
        <ele>2110.605199</ele>
        <time>2023-07-18T16:57:45.943Z</time>
      </trkpt>
      <trkpt lat="44.698011" lon="7.093410">
        <ele>2110.222244</ele>
        <time>2023-07-18T16:57:57.227Z</time>
      </trkpt>
      <trkpt lat="44.698061" lon="7.093378">
        <ele>2109.952896</ele>
        <time>2023-07-18T16:58:04.977Z</time>
      </trkpt>
      <trkpt lat="44.698075" lon="7.093259">
        <ele>2109.532485</ele>
        <time>2023-07-18T16:58:17.640Z</time>
      </trkpt>
      <trkpt lat="44.698265" lon="7.093249">
        <ele>2107.594066</ele>
        <time>2023-07-18T16:58:46.842Z</time>
      </trkpt>
      <trkpt lat="44.698289" lon="7.093136">
        <ele>2106.295569</ele>
        <time>2023-07-18T16:58:59.249Z</time>
      </trkpt>
      <trkpt lat="44.698337" lon="7.093059">
        <ele>2105.167959</ele>
        <time>2023-07-18T16:59:10.276Z</time>
      </trkpt>
      <trkpt lat="44.698457" lon="7.093002">
        <ele>2103.206150</ele>
        <time>2023-07-18T16:59:30.536Z</time>
      </trkpt>
      <trkpt lat="44.698492" lon="7.093046">
        <ele>2102.479110</ele>
        <time>2023-07-18T16:59:37.767Z</time>
      </trkpt>
      <trkpt lat="44.698547" lon="7.093025">
        <ele>2101.596378</ele>
        <time>2023-07-18T16:59:46.629Z</time>
      </trkpt>
      <trkpt lat="44.698608" lon="7.092952">
        <ele>2100.355921</ele>
        <time>2023-07-18T16:59:58.966Z</time>
      </trkpt>
      <trkpt lat="44.698624" lon="7.092999">
        <ele>2099.782163</ele>
        <time>2023-07-18T17:00:04.798Z</time>
      </trkpt>
      <trkpt lat="44.698698" lon="7.092902">
        <ele>2098.215520</ele>
        <time>2023-07-18T17:00:21.407Z</time>
      </trkpt>
      <trkpt lat="44.698741" lon="7.092899">
        <ele>2097.548660</ele>
        <time>2023-07-18T17:00:28.314Z</time>
      </trkpt>
      <trkpt lat="44.698754" lon="7.093166">
        <ele>2094.602088</ele>
        <time>2023-07-18T17:00:58.443Z</time>
      </trkpt>
      <trkpt lat="44.698796" lon="7.093216">
        <ele>2093.749873</ele>
        <time>2023-07-18T17:01:07.279Z</time>
      </trkpt>
      <trkpt lat="44.698934" lon="7.093204">
        <ele>2091.608266</ele>
        <time>2023-07-18T17:01:32.335Z</time>
      </trkpt>
      <trkpt lat="44.698980" lon="7.093243">
        <ele>2090.776373</ele>
        <time>2023-07-18T17:01:41.912Z</time>
      </trkpt>
      <trkpt lat="44.698999" lon="7.093334">
        <ele>2089.732134</ele>
        <time>2023-07-18T17:01:52.987Z</time>
      </trkpt>
      <trkpt lat="44.698979" lon="7.093420">
        <ele>2088.735885</ele>
        <time>2023-07-18T17:02:04.033Z</time>
      </trkpt>
      <trkpt lat="44.699003" lon="7.093425">
        <ele>2088.360087</ele>
        <time>2023-07-18T17:02:08.285Z</time>
      </trkpt>
      <trkpt lat="44.699095" lon="7.093344">
        <ele>2086.679015</ele>
        <time>2023-07-18T17:02:28.587Z</time>
      </trkpt>
      <trkpt lat="44.699183" lon="7.093218">
        <ele>2084.734171</ele>
        <time>2023-07-18T17:02:50.975Z</time>
      </trkpt>
      <trkpt lat="44.699282" lon="7.093179">
        <ele>2083.141743</ele>
        <time>2023-07-18T17:03:08.462Z</time>
      </trkpt>
      <trkpt lat="44.699399" lon="7.092899">
        <ele>2079.159520</ele>
        <time>2023-07-18T17:03:51.699Z</time>
      </trkpt>
      <trkpt lat="44.699472" lon="7.092836">
        <ele>2077.504572</ele>
        <time>2023-07-18T17:04:06.141Z</time>
      </trkpt>
      <trkpt lat="44.699598" lon="7.092578">
        <ele>2073.204872</ele>
        <time>2023-07-18T17:04:47.086Z</time>
      </trkpt>
      <trkpt lat="44.699630" lon="7.092745">
        <ele>2070.829102</ele>
        <time>2023-07-18T17:05:08.119Z</time>
      </trkpt>
      <trkpt lat="44.699604" lon="7.093071">
        <ele>2066.323127</ele>
        <time>2023-07-18T17:05:52.623Z</time>
      </trkpt>
      <trkpt lat="44.699614" lon="7.093247">
        <ele>2063.897912</ele>
        <time>2023-07-18T17:06:14.930Z</time>
      </trkpt>
      <trkpt lat="44.699681" lon="7.093178">
        <ele>2062.293357</ele>
        <time>2023-07-18T17:06:30.285Z</time>
      </trkpt>
      <trkpt lat="44.699731" lon="7.093072">
        <ele>2060.545932</ele>
        <time>2023-07-18T17:06:47.836Z</time>
      </trkpt>
      <trkpt lat="44.699752" lon="7.093189">
        <ele>2058.888400</ele>
        <time>2023-07-18T17:07:03.257Z</time>
      </trkpt>
      <trkpt lat="44.699914" lon="7.092816">
        <ele>2052.884241</ele>
        <time>2023-07-18T17:07:58.933Z</time>
      </trkpt>
      <trkpt lat="44.699969" lon="7.092766">
        <ele>2051.618815</ele>
        <time>2023-07-18T17:08:10.043Z</time>
      </trkpt>
      <trkpt lat="44.700120" lon="7.092520">
        <ele>2047.154275</ele>
        <time>2023-07-18T17:08:49.804Z</time>
      </trkpt>
      <trkpt lat="44.700282" lon="7.092335">
        <ele>2044.300711</ele>
        <time>2023-07-18T17:09:24.102Z</time>
      </trkpt>
      <trkpt lat="44.700346" lon="7.092308">
        <ele>2043.466953</ele>
        <time>2023-07-18T17:09:35.001Z</time>
      </trkpt>
      <trkpt lat="44.700382" lon="7.092334">
        <ele>2042.961992</ele>
        <time>2023-07-18T17:09:41.708Z</time>
      </trkpt>
      <trkpt lat="44.700403" lon="7.092384">
        <ele>2042.446874</ele>
        <time>2023-07-18T17:09:48.779Z</time>
      </trkpt>
      <trkpt lat="44.700389" lon="7.092474">
        <ele>2041.629712</ele>
        <time>2023-07-18T17:09:59.416Z</time>
      </trkpt>
      <trkpt lat="44.700372" lon="7.092633">
        <ele>2040.203571</ele>
        <time>2023-07-18T17:10:13.853Z</time>
      </trkpt>
      <trkpt lat="44.700395" lon="7.092960">
        <ele>2037.289027</ele>
        <time>2023-07-18T17:10:43.715Z</time>
      </trkpt>
      <trkpt lat="44.700493" lon="7.093258">
        <ele>2034.376684</ele>
        <time>2023-07-18T17:11:12.305Z</time>
      </trkpt>
      <trkpt lat="44.700589" lon="7.093434">
        <ele>2032.408958</ele>
        <time>2023-07-18T17:11:31.906Z</time>
      </trkpt>
      <trkpt lat="44.700659" lon="7.093473">
        <ele>2031.469462</ele>
        <time>2023-07-18T17:11:40.899Z</time>
      </trkpt>
      <trkpt lat="44.700798" lon="7.093479">
        <ele>2029.734133</ele>
        <time>2023-07-18T17:11:57.497Z</time>
      </trkpt>
      <trkpt lat="44.700877" lon="7.093650">
        <ele>2027.925215</ele>
        <time>2023-07-18T17:12:15.044Z</time>
      </trkpt>
      <trkpt lat="44.700834" lon="7.093807">
        <ele>2026.432889</ele>
        <time>2023-07-18T17:12:28.941Z</time>
      </trkpt>
      <trkpt lat="44.700859" lon="7.094049">
        <ele>2024.263897</ele>
        <time>2023-07-18T17:12:49.580Z</time>
      </trkpt>
      <trkpt lat="44.700944" lon="7.094226">
        <ele>2023.246563</ele>
        <time>2023-07-18T17:13:07.104Z</time>
      </trkpt>
      <trkpt lat="44.701110" lon="7.094443">
        <ele>2021.935997</ele>
        <time>2023-07-18T17:13:33.035Z</time>
      </trkpt>
      <trkpt lat="44.701217" lon="7.094669">
        <ele>2020.819679</ele>
        <time>2023-07-18T17:13:54.951Z</time>
      </trkpt>
      <trkpt lat="44.701211" lon="7.094910">
        <ele>2019.828331</ele>
        <time>2023-07-18T17:14:14.244Z</time>
      </trkpt>
      <trkpt lat="44.701137" lon="7.095405">
        <ele>2017.748885</ele>
        <time>2023-07-18T17:14:52.652Z</time>
      </trkpt>
      <trkpt lat="44.700997" lon="7.095961">
        <ele>2015.324003</ele>
        <time>2023-07-18T17:15:37.655Z</time>
      </trkpt>
      <trkpt lat="44.700957" lon="7.096117">
        <ele>2014.642239</ele>
        <time>2023-07-18T17:15:50.564Z</time>
      </trkpt>
      <trkpt lat="44.700888" lon="7.096262">
        <ele>2013.924893</ele>
        <time>2023-07-18T17:16:04.006Z</time>
      </trkpt>
      <trkpt lat="44.700789" lon="7.096431">
        <ele>2012.603015</ele>
        <time>2023-07-18T17:16:21.575Z</time>
      </trkpt>
      <trkpt lat="44.700721" lon="7.096409">
        <ele>2011.904652</ele>
        <time>2023-07-18T17:16:29.511Z</time>
      </trkpt>
      <trkpt lat="44.700671" lon="7.096396">
        <ele>2011.395737</ele>
        <time>2023-07-18T17:16:35.372Z</time>
      </trkpt>
      <trkpt lat="44.700601" lon="7.096349">
        <ele>2010.619422</ele>
        <time>2023-07-18T17:16:44.138Z</time>
      </trkpt>
      <trkpt lat="44.700547" lon="7.096264">
        <ele>2009.808383</ele>
        <time>2023-07-18T17:16:53.622Z</time>
      </trkpt>
      <trkpt lat="44.700601" lon="7.096349">
        <ele>2008.997345</ele>
        <time>2023-07-18T17:17:03.022Z</time>
      </trkpt>
      <trkpt lat="44.700671" lon="7.096396">
        <ele>2008.221030</ele>
        <time>2023-07-18T17:17:12.078Z</time>
      </trkpt>
      <trkpt lat="44.700721" lon="7.096409">
        <ele>2007.712115</ele>
        <time>2023-07-18T17:17:18.117Z</time>
      </trkpt>
      <trkpt lat="44.700789" lon="7.096431">
        <ele>2007.013751</ele>
        <time>2023-07-18T17:17:26.276Z</time>
      </trkpt>
      <trkpt lat="44.700777" lon="7.096466">
        <ele>2006.737302</ele>
        <time>2023-07-18T17:17:29.631Z</time>
      </trkpt>
      <trkpt lat="44.700534" lon="7.097068">
        <ele>2001.812148</ele>
        <time>2023-07-18T17:18:29.257Z</time>
      </trkpt>
      <trkpt lat="44.700504" lon="7.097150">
        <ele>2001.156044</ele>
        <time>2023-07-18T17:18:37.318Z</time>
      </trkpt>
      <trkpt lat="44.700498" lon="7.097214">
        <ele>2000.696792</ele>
        <time>2023-07-18T17:18:42.972Z</time>
      </trkpt>
      <trkpt lat="44.700480" lon="7.097417">
        <ele>1999.241416</ele>
        <time>2023-07-18T17:19:01.067Z</time>
      </trkpt>
      <trkpt lat="44.700476" lon="7.097454">
        <ele>1998.975163</ele>
        <time>2023-07-18T17:19:04.354Z</time>
      </trkpt>
      <trkpt lat="44.700436" lon="7.097460">
        <ele>1998.572542</ele>
        <time>2023-07-18T17:19:09.311Z</time>
      </trkpt>
      <trkpt lat="44.700358" lon="7.097358">
        <ele>1997.506690</ele>
        <time>2023-07-18T17:19:22.514Z</time>
      </trkpt>
      <trkpt lat="44.700328" lon="7.097418">
        <ele>1996.984806</ele>
        <time>2023-07-18T17:19:28.951Z</time>
      </trkpt>
      <trkpt lat="44.700299" lon="7.097506">
        <ele>1996.294742</ele>
        <time>2023-07-18T17:19:37.559Z</time>
      </trkpt>
      <trkpt lat="44.700278" lon="7.097567">
        <ele>1995.812554</ele>
        <time>2023-07-18T17:19:43.685Z</time>
      </trkpt>
      <trkpt lat="44.700302" lon="7.097751">
        <ele>1993.384572</ele>
        <time>2023-07-18T17:20:00.033Z</time>
      </trkpt>
      <trkpt lat="44.700268" lon="7.097996">
        <ele>1989.865531</ele>
        <time>2023-07-18T17:20:22.107Z</time>
      </trkpt>
      <trkpt lat="44.700263" lon="7.098180">
        <ele>1987.269739</ele>
        <time>2023-07-18T17:20:38.946Z</time>
      </trkpt>
      <trkpt lat="44.700147" lon="7.098454">
        <ele>1982.773848</ele>
        <time>2023-07-18T17:21:09.351Z</time>
      </trkpt>
      <trkpt lat="44.700106" lon="7.098461">
        <ele>1981.954726</ele>
        <time>2023-07-18T17:21:15.042Z</time>
      </trkpt>
      <trkpt lat="44.700106" lon="7.098305">
        <ele>1979.755547</ele>
        <time>2023-07-18T17:21:30.053Z</time>
      </trkpt>
      <trkpt lat="44.700081" lon="7.098301">
        <ele>1979.256524</ele>
        <time>2023-07-18T17:21:33.730Z</time>
      </trkpt>
      <trkpt lat="44.700045" lon="7.098337">
        <ele>1978.380543</ele>
        <time>2023-07-18T17:21:40.220Z</time>
      </trkpt>
      <trkpt lat="44.699960" lon="7.098560">
        <ele>1974.813354</ele>
        <time>2023-07-18T17:22:07.753Z</time>
      </trkpt>
      <trkpt lat="44.699965" lon="7.098601">
        <ele>1974.226918</ele>
        <time>2023-07-18T17:22:12.025Z</time>
      </trkpt>
      <trkpt lat="44.700054" lon="7.098692">
        <ele>1972.044843</ele>
        <time>2023-07-18T17:22:28.963Z</time>
      </trkpt>
      <trkpt lat="44.700053" lon="7.098781">
        <ele>1970.790025</ele>
        <time>2023-07-18T17:22:38.813Z</time>
      </trkpt>
      <trkpt lat="44.699982" lon="7.098996">
        <ele>1967.447961</ele>
        <time>2023-07-18T17:23:06.255Z</time>
      </trkpt>
      <trkpt lat="44.699898" lon="7.099140">
        <ele>1964.821851</ele>
        <time>2023-07-18T17:23:27.273Z</time>
      </trkpt>
      <trkpt lat="44.699855" lon="7.099163">
        <ele>1963.909471</ele>
        <time>2023-07-18T17:23:34.757Z</time>
      </trkpt>
      <trkpt lat="44.699864" lon="7.098960">
        <ele>1961.042144</ele>
        <time>2023-07-18T17:23:58.772Z</time>
      </trkpt>
      <trkpt lat="44.699840" lon="7.098738">
        <ele>1957.076077</ele>
        <time>2023-07-18T17:24:25.608Z</time>
      </trkpt>
      <trkpt lat="44.699763" lon="7.098803">
        <ele>1954.599787</ele>
        <time>2023-07-18T17:24:41.175Z</time>
      </trkpt>
      <trkpt lat="44.699714" lon="7.098944">
        <ele>1951.523367</ele>
        <time>2023-07-18T17:25:00.805Z</time>
      </trkpt>
      <trkpt lat="44.699647" lon="7.099044">
        <ele>1948.829709</ele>
        <time>2023-07-18T17:25:17.905Z</time>
      </trkpt>
      <trkpt lat="44.699337" lon="7.099375">
        <ele>1938.097771</ele>
        <time>2023-07-18T17:26:26.893Z</time>
      </trkpt>
      <trkpt lat="44.698868" lon="7.100827">
        <ele>1907.512486</ele>
        <time>2023-07-18T17:29:50.762Z</time>
      </trkpt>
      <trkpt lat="44.698784" lon="7.101905">
        <ele>1890.376643</ele>
        <time>2023-07-18T17:31:57.446Z</time>
      </trkpt>
      <trkpt lat="44.698696" lon="7.101830">
        <ele>1888.089442</ele>
        <time>2023-07-18T17:32:12.863Z</time>
      </trkpt>
      <trkpt lat="44.698563" lon="7.101363">
        <ele>1880.139954</ele>
        <time>2023-07-18T17:33:05.044Z</time>
      </trkpt>
      <trkpt lat="44.698513" lon="7.101379">
        <ele>1879.000069</ele>
        <time>2023-07-18T17:33:12.139Z</time>
      </trkpt>
      <trkpt lat="44.698475" lon="7.102827">
        <ele>1859.664482</ele>
        <time>2023-07-18T17:35:27.513Z</time>
      </trkpt>
      <trkpt lat="44.698788" lon="7.103664">
        <ele>1848.456881</ele>
        <time>2023-07-18T17:36:54.899Z</time>
      </trkpt>
      <trkpt lat="44.699265" lon="7.104834">
        <ele>1832.148858</ele>
        <time>2023-07-18T17:39:03.724Z</time>
      </trkpt>
      <trkpt lat="44.699291" lon="7.105349">
        <ele>1825.778760</ele>
        <time>2023-07-18T17:39:53.409Z</time>
      </trkpt>
      <trkpt lat="44.699104" lon="7.105606">
        <ele>1821.241100</ele>
        <time>2023-07-18T17:40:29.079Z</time>
      </trkpt>
      <trkpt lat="44.699077" lon="7.106165">
        <ele>1814.328208</ele>
        <time>2023-07-18T17:41:22.599Z</time>
      </trkpt>
      <trkpt lat="44.699368" lon="7.107468">
        <ele>1798.517796</ele>
        <time>2023-07-18T17:43:30.975Z</time>
      </trkpt>
      <trkpt lat="44.699561" lon="7.107799">
        <ele>1793.707213</ele>
        <time>2023-07-18T17:44:10.624Z</time>
      </trkpt>
      <trkpt lat="44.700162" lon="7.108643">
        <ele>1780.323112</ele>
        <time>2023-07-18T17:45:59.830Z</time>
      </trkpt>
      <trkpt lat="44.700404" lon="7.109298">
        <ele>1772.814822</ele>
        <time>2023-07-18T17:47:06.959Z</time>
      </trkpt>
      <trkpt lat="44.700465" lon="7.109671">
        <ele>1768.921904</ele>
        <time>2023-07-18T17:47:41.686Z</time>
      </trkpt>
      <trkpt lat="44.700466" lon="7.109865">
        <ele>1766.948671</ele>
        <time>2023-07-18T17:47:59.377Z</time>
      </trkpt>
      <trkpt lat="44.700557" lon="7.110059">
        <ele>1764.584555</ele>
        <time>2023-07-18T17:48:20.480Z</time>
      </trkpt>
      <trkpt lat="44.700589" lon="7.110365">
        <ele>1761.438720</ele>
        <time>2023-07-18T17:48:48.470Z</time>
      </trkpt>
      <trkpt lat="44.700538" lon="7.110502">
        <ele>1759.865753</ele>
        <time>2023-07-18T17:49:02.577Z</time>
      </trkpt>
      <trkpt lat="44.700557" lon="7.110617">
        <ele>1758.664903</ele>
        <time>2023-07-18T17:49:13.185Z</time>
      </trkpt>
      <trkpt lat="44.700520" lon="7.110800">
        <ele>1756.729770</ele>
        <time>2023-07-18T17:49:30.355Z</time>
      </trkpt>
      <trkpt lat="44.700464" lon="7.110902">
        <ele>1755.418886</ele>
        <time>2023-07-18T17:49:42.043Z</time>
      </trkpt>
      <trkpt lat="44.700447" lon="7.111005">
        <ele>1754.436026</ele>
        <time>2023-07-18T17:49:51.630Z</time>
      </trkpt>
      <trkpt lat="44.700498" lon="7.111506">
        <ele>1750.054159</ele>
        <time>2023-07-18T17:50:36.958Z</time>
      </trkpt>
      <trkpt lat="44.700434" lon="7.111683">
        <ele>1748.334824</ele>
        <time>2023-07-18T17:50:54.587Z</time>
      </trkpt>
      <trkpt lat="44.700312" lon="7.111831">
        <ele>1746.372628</ele>
        <time>2023-07-18T17:51:14.742Z</time>
      </trkpt>
      <trkpt lat="44.700283" lon="7.111903">
        <ele>1745.656131</ele>
        <time>2023-07-18T17:51:22.087Z</time>
      </trkpt>
      <trkpt lat="44.700318" lon="7.112316">
        <ele>1742.055082</ele>
        <time>2023-07-18T17:51:58.723Z</time>
      </trkpt>
      <trkpt lat="44.700304" lon="7.112459">
        <ele>1740.805310</ele>
        <time>2023-07-18T17:52:11.375Z</time>
      </trkpt>
      <trkpt lat="44.700263" lon="7.112577">
        <ele>1739.668144</ele>
        <time>2023-07-18T17:52:22.944Z</time>
      </trkpt>
      <trkpt lat="44.700172" lon="7.113072">
        <ele>1735.241443</ele>
        <time>2023-07-18T17:53:07.263Z</time>
      </trkpt>
      <trkpt lat="44.700139" lon="7.113817">
        <ele>1730.211092</ele>
        <time>2023-07-18T17:54:10.925Z</time>
      </trkpt>
      <trkpt lat="44.700173" lon="7.114078">
        <ele>1728.682792</ele>
        <time>2023-07-18T17:54:33.185Z</time>
      </trkpt>
      <trkpt lat="44.700165" lon="7.114290">
        <ele>1727.460033</ele>
        <time>2023-07-18T17:54:51.042Z</time>
      </trkpt>
      <trkpt lat="44.700240" lon="7.114779">
        <ele>1724.578758</ele>
        <time>2023-07-18T17:55:32.417Z</time>
      </trkpt>
      <trkpt lat="44.700204" lon="7.114913">
        <ele>1723.753681</ele>
        <time>2023-07-18T17:55:44.131Z</time>
      </trkpt>
      <trkpt lat="44.700191" lon="7.115340">
        <ele>1721.292069</ele>
        <time>2023-07-18T17:56:18.923Z</time>
      </trkpt>
      <trkpt lat="44.700303" lon="7.115734">
        <ele>1718.848035</ele>
        <time>2023-07-18T17:56:53.055Z</time>
      </trkpt>
      <trkpt lat="44.700334" lon="7.115948">
        <ele>1718.482975</ele>
        <time>2023-07-18T17:57:10.330Z</time>
      </trkpt>
      <trkpt lat="44.700253" lon="7.116174">
        <ele>1718.482975</ele>
        <time>2023-07-18T17:57:30.202Z</time>
      </trkpt>
      <trkpt lat="44.700174" lon="7.116573">
        <ele>1718.482975</ele>
        <time>2023-07-18T17:58:02.164Z</time>
      </trkpt>
      <trkpt lat="44.700063" lon="7.116745">
        <ele>1718.482975</ele>
        <time>2023-07-18T17:58:19.985Z</time>
      </trkpt>
      <trkpt lat="44.699942" lon="7.117038">
        <ele>1718.482975</ele>
        <time>2023-07-18T17:58:45.452Z</time>
      </trkpt>
      <trkpt lat="44.699879" lon="7.117717">
        <ele>1718.482975</ele>
        <time>2023-07-18T17:59:36.411Z</time>
      </trkpt>
      <trkpt lat="44.699879" lon="7.117717">
        <ele>1718.482975</ele>
        <time>2023-07-18T17:59:36.420Z</time>
      </trkpt>
    </trkseg>
  </trk>
</gpx>